Time;durP1;ratioP1;P1;durP2;ratioP2;P2;SDS_P1;SDS_P2;PMS_P1;PMS_P2;Temp;Humidity;BMP_temperature;BMP_pressure;BME280_temperature;BME280_humidity;BME280_pressure;Samples;Min_cycle;Max_cycle;Signal;HPM_P1;HPM_P2
2022/01/28 00:01:05;;;;;;;48.93;27.20;;;1.50;99.90;;;;;;5033161;28;20573;-72
2022/01/28 00:03:34;;;;;;;41.20;26.80;;;1.50;99.90;;;;;;5032692;28;20506;-73
2022/01/28 00:06:01;;;;;;;43.77;26.63;;;1.50;99.90;;;;;;5032900;28;20482;-73
2022/01/28 00:08:28;;;;;;;35.60;24.70;;;1.40;99.90;;;;;;5032951;28;20457;-72
2022/01/28 00:10:56;;;;;;;39.00;23.27;;;1.30;99.90;;;;;;5032908;28;20491;-73
2022/01/28 00:13:28;;;;;;;38.70;25.83;;;1.20;99.90;;;;;;5033003;28;20474;-72
2022/01/28 00:38:27;;;;;;;32.37;20.57;;;1.40;99.90;;;;;;5007911;28;20504;-74
2022/01/28 00:40:54;;;;;;;33.20;22.73;;;1.30;99.90;;;;;;5032058;28;20462;-73
2022/01/28 00:43:21;;;;;;;37.77;22.03;;;1.30;99.90;;;;;;5032160;28;21044;-74
2022/01/28 00:45:48;;;;;;;35.03;23.27;;;1.30;99.90;;;;;;5032374;28;20917;-74
2022/01/28 00:48:17;;;;;;;39.13;25.30;;;1.20;99.90;;;;;;5032039;28;20462;-73
2022/01/28 00:50:44;;;;;;;40.20;24.33;;;1.20;99.90;;;;;;5032293;28;20453;-72
2022/01/28 00:53:11;;;;;;;32.90;23.13;;;1.10;99.90;;;;;;5032045;28;20975;-73
2022/01/28 00:55:39;;;;;;;36.30;23.80;;;1.20;99.90;;;;;;5031774;28;20448;-74
2022/01/28 00:58:06;;;;;;;28.70;21.70;;;1.20;99.90;;;;;;5032047;28;20452;-73
2022/01/28 01:00:33;;;;;;;37.00;23.40;;;1.30;99.90;;;;;;5032018;28;20461;-72
2022/01/28 01:03:00;;;;;;;36.87;22.97;;;1.30;99.90;;;;;;5030358;28;20544;-73
2022/01/28 01:05:30;;;;;;;38.50;22.80;;;1.20;99.90;;;;;;5032036;28;20838;-72
2022/01/28 01:07:57;;;;;;;30.60;20.83;;;1.10;99.90;;;;;;5031734;28;20467;-75
2022/01/28 01:10:26;;;;;;;29.50;19.13;;;1.20;99.90;;;;;;5031601;28;20458;-74
2022/01/28 01:12:53;;;;;;;33.27;20.27;;;1.30;99.90;;;;;;5031402;28;20474;-72
2022/01/28 01:15:25;;;;;;;41.70;23.27;;;1.40;99.90;;;;;;5031759;28;20803;-72
2022/01/28 01:17:59;;;;;;;33.17;19.33;;;1.40;99.90;;;;;;5031317;28;20579;-73
2022/01/28 01:20:52;;;;;;;33.07;22.70;;;1.30;99.90;;;;;;5031795;28;20467;-73
2022/01/28 01:23:25;;;;;;;35.10;18.03;;;1.10;99.90;;;;;;5031375;28;20554;-72
2022/01/28 01:25:55;;;;;;;37.23;20.37;;;0.90;99.90;;;;;;5031435;28;20455;-73
2022/01/28 01:28:28;;;;;;;31.63;19.67;;;0.70;99.90;;;;;;5031482;28;20456;-75
2022/01/28 01:30:57;;;;;;;32.03;19.93;;;0.70;99.90;;;;;;5031394;28;20622;-73
2022/01/28 01:33:25;;;;;;;34.97;20.47;;;0.70;99.90;;;;;;5031058;28;20481;-73
2022/01/28 01:35:53;;;;;;;31.17;20.57;;;0.70;99.90;;;;;;5030302;28;20797;-73
2022/01/28 01:38:25;;;;;;;37.27;21.97;;;0.60;99.90;;;;;;5031182;28;20515;-72
2022/01/28 01:40:55;;;;;;;34.40;20.20;;;0.50;99.90;;;;;;5031213;28;20448;-74
2022/01/28 01:43:36;;;;;;;35.33;20.90;;;0.40;99.90;;;;;;5031025;28;20501;-74
2022/01/28 01:46:14;;;;;;;29.57;19.33;;;0.60;99.90;;;;;;5031199;28;20563;-72
2022/01/28 01:54:11;;;;;;;24.57;14.77;;;0.60;99.90;;;;;;5030910;28;21014;-72
2022/01/28 01:56:40;;;;;;;29.97;16.73;;;0.50;99.90;;;;;;5030597;28;20952;-73
2022/01/28 01:59:09;;;;;;;26.40;16.03;;;0.40;99.90;;;;;;5030402;28;20479;-74
2022/01/28 02:01:38;;;;;;;22.53;15.07;;;0.30;99.90;;;;;;5030803;28;20900;-73
2022/01/28 02:04:06;;;;;;;21.90;14.07;;;0.30;99.90;;;;;;5030877;28;20475;-73
2022/01/28 02:06:34;;;;;;;28.53;15.37;;;0.30;99.90;;;;;;5030474;28;20451;-73
2022/01/28 02:09:01;;;;;;;22.70;15.17;;;0.20;99.90;;;;;;5030671;28;20814;-73
2022/01/28 02:11:29;;;;;;;26.47;14.40;;;0.20;99.90;;;;;;5030480;28;20454;-74
2022/01/28 02:13:56;;;;;;;28.57;14.17;;;0.10;99.90;;;;;;5030490;28;20972;-74
2022/01/28 02:16:23;;;;;;;29.87;16.27;;;0.00;99.90;;;;;;5030386;28;20470;-72
2022/01/28 02:18:50;;;;;;;24.97;15.40;;;-0.10;99.90;;;;;;5030589;28;20459;-75
2022/01/28 02:21:19;;;;;;;21.00;13.87;;;-0.10;99.90;;;;;;5030010;28;20459;-73
2022/01/28 02:23:52;;;;;;;25.30;15.50;;;-0.10;99.90;;;;;;5030283;28;20480;-73
2022/01/28 02:26:19;;;;;;;23.87;16.03;;;-0.20;99.90;;;;;;5030248;28;20524;-72
2022/01/28 02:28:50;;;;;;;22.20;14.43;;;-0.10;99.90;;;;;;5030352;28;20461;-74
2022/01/28 02:31:21;;;;;;;22.30;13.90;;;-0.10;99.90;;;;;;5030241;28;20458;-73
2022/01/28 02:33:49;;;;;;;29.50;13.93;;;-0.10;99.90;;;;;;5030032;28;20490;-74
2022/01/28 02:36:18;;;;;;;24.93;13.83;;;0.00;99.90;;;;;;5030058;28;20578;-75
2022/01/28 02:38:45;;;;;;;28.97;14.87;;;0.00;99.90;;;;;;5030103;28;20526;-71
2022/01/28 02:41:12;;;;;;;28.10;15.77;;;0.00;99.90;;;;;;5030121;28;20458;-72
2022/01/28 02:43:44;;;;;;;24.73;14.10;;;0.10;99.90;;;;;;5029987;28;21004;-75
2022/01/28 02:46:13;;;;;;;30.27;16.30;;;0.00;99.90;;;;;;5029720;28;20458;-74
2022/01/28 02:48:52;;;;;;;29.80;16.07;;;0.00;99.90;;;;;;5029831;28;20536;-73
2022/01/28 02:51:22;;;;;;;25.67;15.90;;;0.00;99.90;;;;;;5030081;28;20933;-76
2022/01/28 02:53:53;;;;;;;26.37;15.20;;;0.00;99.90;;;;;;5029786;28;21037;-74
2022/01/28 02:56:24;;;;;;;25.70;15.93;;;-0.10;99.90;;;;;;5029911;28;20466;-71
2022/01/28 02:58:52;;;;;;;27.67;16.60;;;-0.10;99.90;;;;;;5029789;28;20468;-73
2022/01/28 03:01:20;;;;;;;32.77;18.37;;;-0.20;99.90;;;;;;5029719;28;20535;-73
2022/01/28 03:03:47;;;;;;;29.57;18.40;;;-0.20;99.90;;;;;;5029614;28;20712;-72
2022/01/28 03:06:16;;;;;;;29.57;17.63;;;-0.20;99.90;;;;;;5029778;28;20450;-72
2022/01/28 03:08:51;;;;;;;27.40;17.50;;;-0.10;99.90;;;;;;5029855;28;20454;-74
2022/01/28 03:11:42;;;;;;;27.43;16.90;;;-0.20;99.90;;;;;;5029688;28;20457;-74
2022/01/28 03:17:06;;;;;;;25.63;16.83;;;-0.10;99.90;;;;;;5021707;28;20564;-72
2022/01/28 03:19:42;;;;;;;28.07;17.17;;;0.10;99.90;;;;;;5029437;28;20453;-74
2022/01/28 03:22:09;;;;;;;30.77;17.93;;;0.30;99.90;;;;;;5029307;28;20551;-72
2022/01/28 03:24:40;;;;;;;27.90;17.30;;;0.10;99.90;;;;;;5029579;28;20458;-72
2022/01/28 03:27:13;;;;;;;27.03;16.10;;;0.20;99.90;;;;;;5029745;28;20468;-72
2022/01/28 03:29:40;;;;;;;27.57;18.20;;;0.30;99.90;;;;;;5029390;28;20455;-72
2022/01/28 03:32:08;;;;;;;25.67;17.03;;;0.10;99.90;;;;;;5029581;28;20455;-74
2022/01/28 03:34:35;;;;;;;27.27;16.87;;;0.20;99.90;;;;;;5029940;28;20895;-75
2022/01/28 03:37:04;;;;;;;24.80;15.10;;;0.30;99.90;;;;;;5029497;28;20458;-69
2022/01/28 03:39:31;;;;;;;27.23;18.70;;;0.50;99.90;;;;;;5029459;28;20590;-68
2022/01/28 03:42:00;;;;;;;32.23;19.13;;;0.60;99.90;;;;;;5029359;28;20498;-65
2022/01/28 03:44:27;;;;;;;31.30;17.67;;;0.50;99.90;;;;;;5029476;28;20474;-66
2022/01/28 03:46:54;;;;;;;30.90;18.97;;;0.40;99.90;;;;;;5029177;28;20501;-68
2022/01/28 03:49:21;;;;;;;25.27;16.93;;;0.20;99.90;;;;;;5029470;28;20454;-67
2022/01/28 03:51:48;;;;;;;27.73;15.83;;;0.20;99.90;;;;;;5029394;28;20454;-66
2022/01/28 03:54:15;;;;;;;23.20;14.40;;;0.30;99.90;;;;;;5029364;28;21041;-68
2022/01/28 03:56:42;;;;;;;29.43;15.80;;;0.40;99.90;;;;;;5029335;28;20518;-67
2022/01/28 03:59:10;;;;;;;21.17;13.60;;;0.50;99.90;;;;;;5031318;28;20916;-68
2022/01/28 04:01:39;;;;;;;26.80;14.07;;;0.50;99.90;;;;;;5032934;28;21119;-68
2022/01/28 04:12:17;;;;;;;28.33;14.43;;;0.90;99.90;;;;;;5032594;28;20625;-67
2022/01/28 04:14:59;;;;;;;23.60;14.40;;;0.70;99.90;;;;;;5032743;28;20491;-68
2022/01/28 04:17:26;;;;;;;24.83;14.00;;;0.70;99.90;;;;;;5032481;28;21021;-66
2022/01/28 04:19:54;;;;;;;28.63;15.10;;;0.50;99.90;;;;;;5032365;28;20970;-67
2022/01/28 04:22:21;;;;;;;32.20;15.17;;;0.50;99.90;;;;;;5032275;28;20487;-67
2022/01/28 04:24:49;;;;;;;22.37;12.53;;;0.60;99.90;;;;;;5032479;28;20463;-67
2022/01/28 04:27:16;;;;;;;27.27;12.63;;;0.70;99.90;;;;;;5032649;28;20455;-67
2022/01/28 04:29:45;;;;;;;36.30;14.67;;;0.50;99.90;;;;;;5032520;28;20452;-67
2022/01/28 04:32:12;;;;;;;27.23;14.50;;;0.50;99.90;;;;;;5032428;28;20455;-66
2022/01/28 04:34:39;;;;;;;20.23;13.23;;;0.60;99.90;;;;;;5032308;28;20546;-68
2022/01/28 04:37:22;;;;;;;23.13;13.17;;;0.60;99.90;;;;;;5032419;28;20455;-66
2022/01/28 04:39:54;;;;;;;19.83;12.70;;;0.80;99.90;;;;;;5032405;28;20458;-67
2022/01/28 04:42:37;;;;;;;29.80;13.60;;;0.90;99.90;;;;;;5032208;28;20597;-67
2022/01/28 04:45:14;;;;;;;24.53;14.30;;;0.90;99.90;;;;;;5032054;28;20456;-66
2022/01/28 04:47:48;;;;;;;24.80;13.67;;;0.90;99.90;;;;;;5032086;28;20459;-67
2022/01/28 04:50:24;;;;;;;18.87;13.10;;;1.00;99.90;;;;;;5032154;28;20447;-67
2022/01/28 04:53:15;;;;;;;27.53;15.20;;;1.20;99.90;;;;;;5032106;28;20530;-67
2022/01/28 04:55:59;;;;;;;27.23;14.00;;;1.10;99.90;;;;;;5031943;28;20883;-67
2022/01/28 04:58:39;;;;;;;27.33;13.30;;;1.10;99.90;;;;;;5031904;28;20938;-70
2022/01/28 05:01:32;;;;;;;29.20;14.73;;;1.10;99.90;;;;;;5032073;28;20454;-72
2022/01/28 05:04:12;;;;;;;22.57;13.47;;;1.10;99.90;;;;;;5031668;28;20491;-72
2022/01/28 05:26:11;;;;;;;32.23;18.97;;;0.90;99.90;;;;;;5031561;28;20462;-69
2022/01/28 05:28:39;;;;;;;34.20;20.77;;;0.70;99.90;;;;;;5031329;28;20453;-71
2022/01/28 05:31:07;;;;;;;33.60;20.63;;;0.80;99.90;;;;;;5031232;28;20458;-68
2022/01/28 05:33:35;;;;;;;32.43;20.37;;;0.70;99.90;;;;;;5031253;28;20470;-69
2022/01/28 05:36:02;;;;;;;31.53;20.70;;;0.70;99.90;;;;;;5031420;28;20455;-71
2022/01/28 05:38:30;;;;;;;34.73;21.30;;;0.70;99.90;;;;;;5031089;28;20999;-72
2022/01/28 05:40:57;;;;;;;41.00;25.03;;;0.70;99.90;;;;;;5031342;28;20456;-68
2022/01/28 05:43:24;;;;;;;34.73;26.43;;;0.70;99.90;;;;;;5031167;28;20493;-69
2022/01/28 05:45:51;;;;;;;45.13;28.70;;;0.70;99.90;;;;;;5031148;28;20455;-68
2022/01/28 05:48:20;;;;;;;46.67;28.10;;;0.70;99.90;;;;;;5030775;28;20862;-69
2022/01/28 05:50:49;;;;;;;48.97;26.67;;;0.70;99.90;;;;;;5030835;28;20458;-72
2022/01/28 05:53:16;;;;;;;46.23;29.00;;;0.60;99.90;;;;;;5030426;28;20467;-69
2022/01/28 05:55:43;;;;;;;52.93;28.33;;;0.60;99.90;;;;;;5029570;28;20447;-67
2022/01/28 05:58:10;;;;;;;47.13;28.30;;;0.50;99.90;;;;;;5030833;28;20450;-69
2022/01/28 06:00:37;;;;;;;70.03;40.50;;;0.40;99.90;;;;;;5030333;28;20466;-73
2022/01/28 06:03:04;;;;;;;158.60;76.47;;;0.40;99.90;;;;;;5030241;28;20548;-69
2022/01/28 06:05:31;;;;;;;140.10;65.90;;;0.50;99.90;;;;;;5030126;28;20471;-72
2022/01/28 06:08:01;;;;;;;131.53;73.70;;;0.40;99.90;;;;;;5030599;28;20466;-71
2022/01/28 06:10:28;;;;;;;138.00;69.60;;;0.40;99.90;;;;;;5030105;28;20839;-70
2022/01/28 06:12:55;;;;;;;85.43;45.07;;;0.40;99.90;;;;;;5030254;28;20471;-70
2022/01/28 06:15:22;;;;;;;63.17;35.43;;;0.40;99.90;;;;;;5030661;28;20512;-69
2022/01/28 06:17:49;;;;;;;68.80;37.90;;;0.50;99.90;;;;;;5030440;28;20996;-69
2022/01/28 06:20:19;;;;;;;72.63;39.30;;;0.60;99.90;;;;;;5030079;28;20459;-69
2022/01/28 06:22:48;;;;;;;62.47;34.30;;;0.80;99.90;;;;;;5029761;28;20505;-70
2022/01/28 06:25:17;;;;;;;56.13;28.37;;;0.70;99.90;;;;;;5030048;28;20456;-65
2022/01/28 06:27:45;;;;;;;51.47;28.97;;;0.60;99.90;;;;;;5030219;28;20956;-68
2022/01/28 06:30:13;;;;;;;44.53;27.50;;;0.50;99.90;;;;;;5030266;28;20522;-69
2022/01/28 06:32:40;;;;;;;38.73;22.83;;;0.40;99.90;;;;;;5030295;28;20490;-70
2022/01/28 06:35:08;;;;;;;38.97;25.13;;;0.30;99.90;;;;;;5030152;28;20482;-69
2022/01/28 06:37:40;;;;;;;45.93;27.90;;;0.40;99.90;;;;;;5029990;28;20461;-71
2022/01/28 06:40:08;;;;;;;36.57;24.03;;;0.60;99.90;;;;;;5029821;28;20459;-69
2022/01/28 06:42:37;;;;;;;45.33;27.07;;;0.80;99.90;;;;;;5029914;28;20478;-68
2022/01/28 06:45:05;;;;;;;48.07;32.00;;;0.90;99.90;;;;;;5029985;28;20450;-73
2022/01/28 06:47:32;;;;;;;42.43;27.80;;;0.60;99.90;;;;;;5029926;28;20458;-73
2022/01/28 06:50:00;;;;;;;44.37;23.67;;;0.40;99.90;;;;;;5030069;28;20774;-75
2022/01/28 06:52:27;;;;;;;39.80;22.30;;;0.40;99.90;;;;;;5029857;28;20475;-70
2022/01/28 06:54:54;;;;;;;37.63;22.80;;;0.50;99.90;;;;;;5029912;28;20494;-71
2022/01/28 06:57:21;;;;;;;37.37;21.00;;;0.60;99.90;;;;;;5030017;28;20515;-71
2022/01/28 06:59:50;;;;;;;30.60;19.53;;;0.60;99.90;;;;;;5029916;28;20478;-71
2022/01/28 07:02:17;;;;;;;31.13;19.53;;;0.80;99.90;;;;;;5029822;28;20447;-68
2022/01/28 07:04:44;;;;;;;36.97;19.97;;;1.10;99.90;;;;;;5029525;28;20491;-67
2022/01/28 07:07:11;;;;;;;31.20;19.90;;;1.20;99.90;;;;;;5029583;28;20948;-67
2022/01/28 07:09:38;;;;;;;31.80;18.60;;;1.30;99.90;;;;;;5029973;28;20518;-71
2022/01/28 07:12:06;;;;;;;28.40;18.40;;;1.40;99.90;;;;;;5029691;28;20452;-68
2022/01/28 07:14:33;;;;;;;30.20;18.87;;;1.50;99.90;;;;;;5029660;28;20475;-68
2022/01/28 07:17:02;;;;;;;27.43;18.70;;;1.60;99.90;;;;;;5029519;28;20486;-71
2022/01/28 07:19:29;;;;;;;35.43;20.00;;;1.70;99.90;;;;;;5029924;28;20485;-71
2022/01/28 07:21:56;;;;;;;25.83;17.30;;;1.80;99.90;;;;;;5029409;28;20942;-72
2022/01/28 07:24:23;;;;;;;38.83;19.37;;;1.80;99.90;;;;;;5029528;28;20494;-70
2022/01/28 07:26:51;;;;;;;28.17;18.10;;;2.10;99.90;;;;;;5031418;28;20515;-71
2022/01/28 07:29:18;;;;;;;27.37;17.53;;;2.40;99.90;;;;;;5045054;28;20944;-71
2022/01/28 07:31:46;;;;;;;28.73;17.13;;;2.70;99.90;;;;;;5049545;28;20508;-68
2022/01/28 07:34:15;;;;;;;28.77;16.43;;;2.60;99.90;;;;;;5051270;28;20482;-66
2022/01/28 07:36:42;;;;;;;26.83;15.27;;;2.60;99.90;;;;;;5053176;28;20516;-66
2022/01/28 07:39:09;;;;;;;31.10;15.00;;;2.60;99.90;;;;;;5052895;28;20512;-69
2022/01/28 07:41:37;;;;;;;23.97;14.80;;;2.60;99.90;;;;;;5053045;28;20525;-65
2022/01/28 07:44:04;;;;;;;25.67;14.50;;;2.70;99.90;;;;;;5053029;28;21098;-67
2022/01/28 07:46:31;;;;;;;33.03;17.30;;;2.70;99.90;;;;;;5052977;28;20858;-65
2022/01/28 07:48:58;;;;;;;23.87;14.47;;;2.70;99.90;;;;;;5053215;28;20519;-64
2022/01/28 07:51:27;;;;;;;37.80;18.30;;;2.80;99.90;;;;;;5052836;28;20457;-68
2022/01/28 07:53:54;;;;;;;24.70;16.57;;;2.80;99.90;;;;;;5052860;28;20546;-77
2022/01/28 07:56:22;;;;;;;30.47;17.67;;;2.90;99.90;;;;;;5052877;28;20457;-69
2022/01/28 07:58:49;;;;;;;28.17;16.47;;;3.00;99.90;;;;;;5052686;28;20471;-69
2022/01/28 08:01:16;;;;;;;25.33;16.03;;;3.10;99.90;;;;;;5052612;28;20453;-69
2022/01/28 08:03:43;;;;;;;23.93;17.70;;;3.50;99.90;;;;;;5052202;28;20496;-70
2022/01/28 08:06:10;;;;;;;55.87;33.53;;;3.70;99.90;;;;;;5052598;28;20905;-70
2022/01/28 08:08:39;;;;;;;29.80;18.13;;;3.70;99.90;;;;;;5051057;28;20508;-70
2022/01/28 08:11:06;;;;;;;30.70;20.53;;;3.70;99.90;;;;;;5052647;28;20456;-69
2022/01/28 08:13:33;;;;;;;43.57;32.40;;;3.70;99.90;;;;;;5052251;28;20975;-69
2022/01/28 08:16:00;;;;;;;44.57;28.87;;;3.80;99.90;;;;;;5052464;28;20464;-69
2022/01/28 08:18:27;;;;;;;38.27;22.10;;;3.90;99.90;;;;;;5051639;28;20484;-70
2022/01/28 08:20:54;;;;;;;26.13;15.63;;;4.10;99.90;;;;;;5052528;28;20463;-69
2022/01/28 08:23:21;;;;;;;33.83;16.90;;;4.10;99.90;;;;;;5052203;28;20498;-69
2022/01/28 08:25:53;;;;;;;28.70;16.67;;;3.70;99.90;;;;;;5052077;28;20470;-71
2022/01/28 08:28:21;;;;;;;36.03;16.70;;;3.60;99.90;;;;;;5051641;28;20463;-69
2022/01/28 08:30:48;;;;;;;21.90;14.67;;;3.80;99.90;;;;;;5052159;28;20461;-71
2022/01/28 08:33:15;;;;;;;27.73;15.70;;;4.20;99.90;;;;;;5051863;28;20524;-68
2022/01/28 08:35:46;;;;;;;28.53;15.70;;;4.60;99.90;;;;;;5052205;28;20462;-71
2022/01/28 08:38:16;;;;;;;40.80;19.33;;;4.80;99.90;;;;;;5052175;28;20458;-71
2022/01/28 08:40:43;;;;;;;39.73;26.80;;;5.10;99.90;;;;;;5051685;28;20931;-69
2022/01/28 08:43:12;;;;;;;51.93;33.00;;;5.60;99.90;;;;;;5051583;28;20489;-71
2022/01/28 08:45:39;;;;;;;54.97;35.83;;;6.00;99.80;;;;;;5051597;28;20601;-72
2022/01/28 08:48:06;;;;;;;55.47;39.60;;;6.30;99.10;;;;;;5051526;28;20445;-72
2022/01/28 08:50:33;;;;;;;55.40;37.00;;;6.40;98.00;;;;;;5051909;28;20474;-69
2022/01/28 08:53:00;;;;;;;68.60;41.33;;;6.40;96.90;;;;;;5051469;28;20471;-75
2022/01/28 08:55:27;;;;;;;58.47;38.83;;;6.30;96.70;;;;;;5051553;28;20504;-70
2022/01/28 08:57:54;;;;;;;51.77;36.50;;;6.00;96.20;;;;;;5051606;28;20454;-73
2022/01/28 09:00:23;;;;;;;56.00;34.87;;;5.90;96.80;;;;;;5051405;28;20457;-72
2022/01/28 09:02:51;;;;;;;61.60;35.30;;;6.10;97.10;;;;;;5051245;28;20542;-73
2022/01/28 09:05:18;;;;;;;58.33;34.73;;;6.40;95.80;;;;;;5051745;28;20518;-74
2022/01/28 09:07:48;;;;;;;49.47;31.87;;;6.60;94.60;;;;;;5051478;28;20927;-72
2022/01/28 09:10:18;;;;;;;53.30;31.00;;;6.90;93.70;;;;;;5051406;28;20457;-68
2022/01/28 09:13:10;;;;;;;49.80;32.07;;;7.00;93.20;;;;;;5051756;28;20474;-70
2022/01/28 09:15:41;;;;;;;45.47;31.80;;;7.00;93.00;;;;;;5051264;28;20444;-72
2022/01/28 09:18:09;;;;;;;55.70;32.27;;;7.30;92.00;;;;;;5050980;28;20478;-69
2022/01/28 09:20:38;;;;;;;49.77;31.57;;;7.40;91.90;;;;;;5051428;28;20553;-72
2022/01/28 09:23:06;;;;;;;46.17;28.90;;;7.60;91.00;;;;;;5049896;28;20533;-75
2022/01/28 09:25:34;;;;;;;44.40;29.97;;;7.90;90.80;;;;;;5051344;28;20503;-73
2022/01/28 09:28:01;;;;;;;42.30;30.83;;;8.00;89.40;;;;;;5051330;28;20459;-68
2022/01/28 09:30:28;;;;;;;41.87;30.80;;;8.10;88.20;;;;;;5051509;28;20460;-69
2022/01/28 09:32:58;;;;;;;43.33;30.47;;;8.00;86.90;;;;;;5050768;28;20879;-71
2022/01/28 09:35:25;;;;;;;45.53;30.53;;;8.10;88.20;;;;;;5051194;28;20544;-71
2022/01/28 09:37:53;;;;;;;47.23;30.00;;;8.30;87.70;;;;;;5050968;28;20495;-73
2022/01/28 09:40:21;;;;;;;47.43;31.00;;;8.50;86.20;;;;;;5051053;28;20455;-72
2022/01/28 09:42:52;;;;;;;46.10;33.17;;;8.60;85.30;;;;;;5051183;28;20481;-71
2022/01/28 09:45:21;;;;;;;54.13;32.20;;;8.80;84.60;;;;;;5050746;28;20585;-70
2022/01/28 09:47:53;;;;;;;55.40;34.77;;;8.90;84.10;;;;;;5050588;28;20960;-70
2022/01/28 09:50:23;;;;;;;58.90;36.80;;;9.10;84.00;;;;;;5050841;28;20544;-71
2022/01/28 09:52:51;;;;;;;53.40;38.90;;;9.40;83.10;;;;;;5050867;28;20530;-70
2022/01/28 09:55:19;;;;;;;55.30;38.23;;;9.40;81.40;;;;;;5049988;28;20460;-72
2022/01/28 09:57:47;;;;;;;61.80;37.03;;;9.20;81.30;;;;;;5050192;28;20497;-71
2022/01/28 10:00:16;;;;;;;54.13;37.30;;;8.90;81.30;;;;;;5050747;28;20457;-71
2022/01/28 10:02:52;;;;;;;53.43;37.33;;;8.90;81.90;;;;;;5050572;28;20479;-72
2022/01/28 10:05:26;;;;;;;54.43;38.20;;;8.80;81.60;;;;;;5050524;28;20493;-72
2022/01/28 10:08:05;;;;;;;67.77;36.93;;;8.80;81.20;;;;;;5050547;28;20456;-70
2022/01/28 10:10:59;;;;;;;55.13;39.27;;;8.70;81.70;;;;;;5050281;28;20575;-72
2022/01/28 10:13:32;;;;;;;58.10;38.73;;;8.70;82.40;;;;;;5050430;28;20507;-71
2022/01/28 10:16:08;;;;;;;49.53;33.63;;;8.30;83.00;;;;;;5050605;28;20456;-72
2022/01/28 10:18:51;;;;;;;58.73;38.13;;;8.00;84.90;;;;;;5049804;28;20495;-71
2022/01/28 10:21:26;;;;;;;55.00;38.00;;;8.00;86.20;;;;;;5050417;28;20461;-72
2022/01/28 10:24:00;;;;;;;54.03;38.20;;;8.10;85.20;;;;;;5050280;28;21034;-72
2022/01/28 10:26:32;;;;;;;54.03;35.47;;;8.10;83.70;;;;;;5050109;28;20460;-71
2022/01/28 10:29:00;;;;;;;63.70;38.27;;;8.00;85.00;;;;;;5050228;28;20461;-69
2022/01/28 10:31:44;;;;;;;62.43;36.27;;;7.90;86.50;;;;;;5050221;28;20779;-71
2022/01/28 10:34:20;;;;;;;52.50;36.47;;;7.80;86.60;;;;;;5050214;28;20531;-72
2022/01/28 10:36:51;;;;;;;54.50;37.50;;;7.60;87.00;;;;;;5050225;28;20800;-69
2022/01/28 10:39:20;;;;;;;60.50;39.53;;;7.40;88.20;;;;;;5049901;28;20461;-70
2022/01/28 10:41:53;;;;;;;63.77;40.27;;;7.40;88.90;;;;;;5049692;28;20934;-71
2022/01/28 10:44:20;;;;;;;60.50;42.10;;;7.40;89.20;;;;;;5049794;28;20538;-72
2022/01/28 10:46:56;;;;;;;72.23;44.00;;;7.30;89.40;;;;;;5049714;28;20455;-72
2022/01/28 10:49:32;;;;;;;62.10;43.67;;;7.20;90.30;;;;;;5049729;28;20451;-71
2022/01/28 10:52:19;;;;;;;68.53;43.67;;;7.00;90.90;;;;;;5049762;28;20458;-70
2022/01/28 10:54:57;;;;;;;66.50;42.47;;;6.90;91.10;;;;;;5049490;28;20453;-71
2022/01/28 10:57:24;;;;;;;67.67;37.10;;;6.90;91.90;;;;;;5049765;28;20455;-71
2022/01/28 10:59:52;;;;;;;49.97;35.70;;;6.80;91.20;;;;;;5049714;28;20461;-69
2022/01/28 11:02:19;;;;;;;51.73;33.40;;;6.90;91.00;;;;;;5049433;28;20476;-70
2022/01/28 11:04:47;;;;;;;55.03;34.23;;;7.00;90.80;;;;;;5049644;28;21015;-71
2022/01/28 11:07:15;;;;;;;46.37;32.50;;;7.00;91.10;;;;;;5049535;28;20922;-69
2022/01/28 11:09:42;;;;;;;54.83;34.47;;;7.10;90.50;;;;;;5049848;28;20473;-70
2022/01/28 11:12:10;;;;;;;46.07;31.27;;;7.20;90.60;;;;;;5049523;28;20463;-70
2022/01/28 11:14:37;;;;;;;47.60;32.20;;;7.10;90.70;;;;;;5049705;28;20553;-71
2022/01/28 11:17:04;;;;;;;48.80;32.03;;;7.20;90.90;;;;;;5049024;28;20492;-70
2022/01/28 11:19:36;;;;;;;76.27;41.60;;;7.30;90.30;;;;;;5049501;28;20455;-70
2022/01/28 11:22:14;;;;;;;70.03;42.17;;;7.30;91.10;;;;;;5049268;28;20451;-71
2022/01/28 11:25:06;;;;;;;57.37;41.77;;;7.40;90.80;;;;;;5049264;28;20486;-72
2022/01/28 11:27:36;;;;;;;67.73;43.20;;;7.30;91.20;;;;;;5049386;28;20459;-70
2022/01/28 11:30:25;;;;;;;55.70;34.83;;;7.30;91.60;;;;;;5049227;28;20450;-73
2022/01/28 11:33:01;;;;;;;41.90;29.20;;;7.20;91.80;;;;;;5048007;28;20554;-73
2022/01/28 11:35:31;;;;;;;44.40;27.47;;;7.00;92.00;;;;;;5047818;28;20500;-71
2022/01/28 11:38:04;;;;;;;34.97;24.87;;;7.10;92.60;;;;;;5048710;28;20455;-70
2022/01/28 11:40:44;;;;;;;33.30;23.40;;;7.00;92.30;;;;;;5049552;28;20453;-72
2022/01/28 11:43:18;;;;;;;30.83;21.70;;;7.00;92.70;;;;;;5049456;28;20541;-73
2022/01/28 11:45:45;;;;;;;30.10;21.27;;;7.00;93.30;;;;;;5049248;28;20582;-71
2022/01/28 11:48:12;;;;;;;30.00;20.37;;;7.00;93.80;;;;;;5047822;28;20510;-70
2022/01/28 11:50:40;;;;;;;30.90;18.10;;;7.10;94.10;;;;;;5049016;28;20467;-70
2022/01/28 11:53:24;;;;;;;24.47;17.10;;;7.20;95.00;;;;;;5049298;28;20997;-74
2022/01/28 11:56:04;;;;;;;21.63;13.40;;;7.20;95.80;;;;;;5049425;28;20451;-72
2022/01/28 11:58:52;;;;;;;21.17;13.00;;;7.10;96.70;;;;;;5048488;28;20495;-73
2022/01/28 12:01:24;;;;;;;15.63;12.37;;;7.00;97.90;;;;;;5044881;28;20550;-76
2022/01/28 12:03:51;;;;;;;15.70;8.90;;;7.10;98.80;;;;;;5051320;28;20975;-75
2022/01/28 12:06:18;;;;;;;16.13;9.50;;;7.10;99.30;;;;;;5048966;28;20878;-71
2022/01/28 12:08:46;;;;;;;14.63;7.47;;;7.20;99.90;;;;;;5048866;28;20463;-73
2022/01/28 12:11:43;;;;;;;11.90;7.80;;;7.30;99.90;;;;;;5048969;28;20538;-74
2022/01/28 12:14:13;;;;;;;13.83;7.40;;;7.50;99.90;;;;;;5048906;28;20508;-74
2022/01/28 12:16:45;;;;;;;11.67;6.93;;;7.60;99.90;;;;;;5048770;28;20515;-73
2022/01/28 12:19:17;;;;;;;12.33;7.40;;;7.60;99.90;;;;;;5049521;28;20952;-74
2022/01/28 12:22:05;;;;;;;9.37;5.87;;;7.50;99.90;;;;;;5051913;28;20551;-73
2022/01/28 12:24:34;;;;;;;10.03;6.23;;;7.50;99.90;;;;;;5052289;28;21041;-74
2022/01/28 12:27:04;;;;;;;10.90;7.77;;;7.60;99.90;;;;;;5052270;28;20951;-71
2022/01/28 12:29:33;;;;;;;11.23;5.70;;;7.60;99.90;;;;;;5052283;28;20789;-76
2022/01/28 12:32:02;;;;;;;11.40;7.50;;;7.60;99.90;;;;;;5052199;28;20463;-70
2022/01/28 12:34:29;;;;;;;13.37;6.70;;;7.60;99.90;;;;;;5052363;28;20478;-67
2022/01/28 12:36:58;;;;;;;14.23;7.70;;;7.70;99.90;;;;;;5052101;28;20468;-66
2022/01/28 12:39:36;;;;;;;13.40;7.13;;;7.90;99.90;;;;;;5052214;28;20515;-67
2022/01/28 12:42:08;;;;;;;12.50;7.23;;;8.00;99.90;;;;;;5052245;28;20472;-70
2022/01/28 12:44:37;;;;;;;15.50;7.33;;;8.00;99.90;;;;;;5051620;28;20460;-72
2022/01/28 12:47:09;;;;;;;11.77;7.63;;;8.00;99.90;;;;;;5051883;28;20937;-70
2022/01/28 12:49:37;;;;;;;13.80;7.53;;;8.10;99.90;;;;;;5052186;28;20461;-74
2022/01/28 12:52:06;;;;;;;12.60;7.03;;;8.20;99.90;;;;;;5052138;28;20905;-80
2022/01/28 12:54:36;;;;;;;12.40;7.17;;;8.20;99.90;;;;;;5051883;28;20975;-72
2022/01/28 12:57:06;;;;;;;10.13;7.30;;;8.10;99.90;;;;;;5051544;28;20460;-74
2022/01/28 12:59:34;;;;;;;12.33;6.90;;;8.10;99.90;;;;;;5051773;28;20456;-74
2022/01/28 13:02:01;;;;;;;11.50;7.40;;;8.00;99.90;;;;;;5051714;28;20460;-71
2022/01/28 13:04:49;;;;;;;10.63;6.13;;;8.20;99.90;;;;;;5051857;28;20467;-78
2022/01/28 13:10:01;;;;;;;8.40;4.80;;;7.90;99.90;;;;;;5051614;28;20798;-73
2022/01/28 13:12:31;;;;;;;9.07;5.07;;;8.00;99.90;;;;;;5051272;28;20884;-71
2022/01/28 13:15:08;;;;;;;9.87;5.20;;;8.00;99.90;;;;;;5051638;28;20460;-73
2022/01/28 13:17:35;;;;;;;8.93;5.40;;;8.00;99.90;;;;;;5050969;28;20827;-73
2022/01/28 13:20:06;;;;;;;8.43;4.63;;;7.90;99.90;;;;;;5051337;28;20459;-71
2022/01/28 13:22:33;;;;;;;12.33;6.00;;;7.60;99.90;;;;;;5050687;28;20491;-72
2022/01/28 13:25:01;;;;;;;9.10;6.37;;;7.50;99.90;;;;;;5051388;28;20491;-72
2022/01/28 13:27:45;;;;;;;8.33;5.00;;;7.30;99.90;;;;;;5051377;28;20450;-72
2022/01/28 13:30:14;;;;;;;9.17;5.40;;;7.10;99.90;;;;;;5050508;28;20469;-72
2022/01/28 13:32:45;;;;;;;10.03;4.73;;;7.20;99.90;;;;;;5050239;28;20483;-71
2022/01/28 13:35:14;;;;;;;12.83;5.90;;;7.00;99.90;;;;;;5050937;28;20515;-70
2022/01/28 13:37:43;;;;;;;10.13;5.80;;;7.20;99.90;;;;;;5051034;28;20867;-71
2022/01/28 13:40:12;;;;;;;10.40;5.77;;;7.20;99.90;;;;;;5050916;28;20446;-72
2022/01/28 13:42:56;;;;;;;8.50;6.00;;;7.20;99.90;;;;;;5050691;28;20479;-74
2022/01/28 13:45:30;;;;;;;10.77;6.00;;;7.00;99.90;;;;;;5050635;28;21074;-72
2022/01/28 13:47:58;;;;;;;12.07;6.90;;;7.00;99.90;;;;;;5050651;28;20533;-72
2022/01/28 13:50:27;;;;;;;14.87;7.47;;;6.70;99.90;;;;;;5050733;28;20456;-72
2022/01/28 13:53:20;;;;;;;10.33;6.60;;;6.70;99.90;;;;;;5050077;28;20479;-72
2022/01/28 13:55:48;;;;;;;10.40;6.40;;;6.50;99.90;;;;;;5050627;28;20458;-70